sensor_id;sensor_type;location;lat;lon;timestamp;P1;durP1;ratioP1;P2;durP2;ratioP2
57752;SDS011;43583;53.132;6.574;2022-07-01T00:00:47;3.90;;;0.40;;
57752;SDS011;43583;53.132;6.574;2022-07-01T00:03:13;4.65;;;0.35;;
57752;SDS011;43583;53.132;6.574;2022-07-01T00:05:39;2.05;;;0.30;;
57752;SDS011;43583;53.132;6.574;2022-07-01T00:08:04;3.28;;;0.60;;
57752;SDS011;43583;53.132;6.574;2022-07-01T00:10:30;3.28;;;0.30;;
57752;SDS011;43583;53.132;6.574;2022-07-01T00:12:56;4.95;;;0.30;;
57752;SDS011;43583;53.132;6.574;2022-07-01T00:15:22;3.30;;;0.25;;
57752;SDS011;43583;53.132;6.574;2022-07-01T00:17:48;3.42;;;0.38;;
57752;SDS011;43583;53.132;6.574;2022-07-01T00:20:13;3.47;;;0.70;;
57752;SDS011;43583;53.132;6.574;2022-07-01T00:22:39;1.08;;;0.30;;
57752;SDS011;43583;53.132;6.574;2022-07-01T00:25:06;5.00;;;0.40;;
57752;SDS011;43583;53.132;6.574;2022-07-01T00:27:32;2.75;;;0.45;;
57752;SDS011;43583;53.132;6.574;2022-07-01T00:30:01;3.38;;;0.22;;
57752;SDS011;43583;53.132;6.574;2022-07-01T00:32:27;2.72;;;0.30;;
57752;SDS011;43583;53.132;6.574;2022-07-01T00:34:52;2.25;;;0.30;;
57752;SDS011;43583;53.132;6.574;2022-07-01T00:37:18;3.83;;;0.30;;
57752;SDS011;43583;53.132;6.574;2022-07-01T00:39:44;3.85;;;0.40;;
57752;SDS011;43583;53.132;6.574;2022-07-01T00:42:10;2.42;;;0.30;;
57752;SDS011;43583;53.132;6.574;2022-07-01T00:44:36;2.05;;;0.30;;
57752;SDS011;43583;53.132;6.574;2022-07-01T00:47:03;2.33;;;0.40;;
57752;SDS011;43583;53.132;6.574;2022-07-01T00:49:32;3.58;;;0.30;;
57752;SDS011;43583;53.132;6.574;2022-07-01T00:52:00;2.75;;;0.43;;
57752;SDS011;43583;53.132;6.574;2022-07-01T00:54:26;1.48;;;0.30;;
57752;SDS011;43583;53.132;6.574;2022-07-01T00:56:52;2.70;;;0.25;;
57752;SDS011;43583;53.132;6.574;2022-07-01T00:59:18;2.85;;;0.50;;
57752;SDS011;43583;53.132;6.574;2022-07-01T01:01:44;5.80;;;0.40;;
57752;SDS011;43583;53.132;6.574;2022-07-01T01:04:10;3.30;;;0.30;;
57752;SDS011;43583;53.132;6.574;2022-07-01T01:06:36;5.25;;;0.30;;
57752;SDS011;43583;53.132;6.574;2022-07-01T01:09:02;4.32;;;0.30;;
57752;SDS011;43583;53.132;6.574;2022-07-01T01:11:28;1.30;;;0.20;;
57752;SDS011;43583;53.132;6.574;2022-07-01T01:13:55;3.47;;;0.35;;
57752;SDS011;43583;53.132;6.574;2022-07-01T01:16:21;1.65;;;0.40;;
57752;SDS011;43583;53.132;6.574;2022-07-01T01:18:48;1.75;;;0.30;;
57752;SDS011;43583;53.132;6.574;2022-07-01T01:21:13;3.20;;;0.20;;
57752;SDS011;43583;53.132;6.574;2022-07-01T01:23:39;3.33;;;0.30;;
57752;SDS011;43583;53.132;6.574;2022-07-01T01:26:24;2.05;;;0.30;;
57752;SDS011;43583;53.132;6.574;2022-07-01T01:28:50;3.40;;;0.37;;
57752;SDS011;43583;53.132;6.574;2022-07-01T01:31:17;3.10;;;0.90;;
57752;SDS011;43583;53.132;6.574;2022-07-01T01:33:53;1.08;;;0.30;;
57752;SDS011;43583;53.132;6.574;2022-07-01T01:36:19;1.65;;;0.32;;
57752;SDS011;43583;53.132;6.574;2022-07-01T01:38:44;2.70;;;0.30;;
57752;SDS011;43583;53.132;6.574;2022-07-01T01:41:10;0.80;;;0.30;;
57752;SDS011;43583;53.132;6.574;2022-07-01T01:43:36;3.55;;;0.40;;
57752;SDS011;43583;53.132;6.574;2022-07-01T01:46:02;1.55;;;0.40;;
57752;SDS011;43583;53.132;6.574;2022-07-01T01:48:28;1.63;;;0.25;;
57752;SDS011;43583;53.132;6.574;2022-07-01T01:50:55;1.95;;;0.30;;
57752;SDS011;43583;53.132;6.574;2022-07-01T01:53:20;3.03;;;0.50;;
57752;SDS011;43583;53.132;6.574;2022-07-01T01:55:46;1.10;;;0.35;;
57752;SDS011;43583;53.132;6.574;2022-07-01T01:58:12;4.07;;;0.50;;
57752;SDS011;43583;53.132;6.574;2022-07-01T02:00:37;2.35;;;0.30;;
57752;SDS011;43583;53.132;6.574;2022-07-01T02:03:03;1.75;;;0.60;;
57752;SDS011;43583;53.132;6.574;2022-07-01T02:05:29;2.00;;;0.85;;
57752;SDS011;43583;53.132;6.574;2022-07-01T02:07:55;1.95;;;0.30;;
57752;SDS011;43583;53.132;6.574;2022-07-01T02:10:21;2.33;;;0.30;;
57752;SDS011;43583;53.132;6.574;2022-07-01T02:12:47;0.85;;;0.50;;
57752;SDS011;43583;53.132;6.574;2022-07-01T02:15:12;2.13;;;0.30;;
57752;SDS011;43583;53.132;6.574;2022-07-01T02:17:38;2.75;;;0.45;;
57752;SDS011;43583;53.132;6.574;2022-07-01T02:20:04;1.00;;;0.30;;
57752;SDS011;43583;53.132;6.574;2022-07-01T02:22:30;1.25;;;0.40;;
57752;SDS011;43583;53.132;6.574;2022-07-01T02:24:56;3.20;;;0.40;;
57752;SDS011;43583;53.132;6.574;2022-07-01T02:27:21;0.93;;;0.30;;
57752;SDS011;43583;53.132;6.574;2022-07-01T02:29:47;1.08;;;0.40;;
57752;SDS011;43583;53.132;6.574;2022-07-01T02:32:13;1.10;;;0.35;;
57752;SDS011;43583;53.132;6.574;2022-07-01T02:34:38;2.30;;;0.45;;
57752;SDS011;43583;53.132;6.574;2022-07-01T02:37:04;0.90;;;0.50;;
57752;SDS011;43583;53.132;6.574;2022-07-01T02:39:30;1.33;;;0.30;;
57752;SDS011;43583;53.132;6.574;2022-07-01T02:41:57;0.80;;;0.60;;
57752;SDS011;43583;53.132;6.574;2022-07-01T02:44:42;2.72;;;0.60;;
57752;SDS011;43583;53.132;6.574;2022-07-01T02:47:07;2.45;;;0.43;;
57752;SDS011;43583;53.132;6.574;2022-07-01T02:49:33;1.92;;;0.52;;
57752;SDS011;43583;53.132;6.574;2022-07-01T02:51:58;2.08;;;0.70;;
57752;SDS011;43583;53.132;6.574;2022-07-01T02:54:24;3.83;;;0.70;;
57752;SDS011;43583;53.132;6.574;2022-07-01T02:56:50;5.07;;;0.90;;
57752;SDS011;43583;53.132;6.574;2022-07-01T02:59:15;3.72;;;1.27;;
57752;SDS011;43583;53.132;6.574;2022-07-01T03:01:41;3.45;;;1.20;;
57752;SDS011;43583;53.132;6.574;2022-07-01T03:04:07;2.47;;;0.82;;
57752;SDS011;43583;53.132;6.574;2022-07-01T03:06:32;2.65;;;1.25;;
57752;SDS011;43583;53.132;6.574;2022-07-01T03:08:58;5.68;;;1.15;;
57752;SDS011;43583;53.132;6.574;2022-07-01T03:11:24;2.83;;;1.40;;
57752;SDS011;43583;53.132;6.574;2022-07-01T03:13:49;2.83;;;1.77;;
57752;SDS011;43583;53.132;6.574;2022-07-01T03:16:15;2.60;;;1.25;;
57752;SDS011;43583;53.132;6.574;2022-07-01T03:18:41;1.65;;;1.00;;
57752;SDS011;43583;53.132;6.574;2022-07-01T03:21:06;4.95;;;1.98;;
57752;SDS011;43583;53.132;6.574;2022-07-01T03:23:32;2.65;;;0.90;;
57752;SDS011;43583;53.132;6.574;2022-07-01T03:25:57;3.25;;;1.23;;
57752;SDS011;43583;53.132;6.574;2022-07-01T03:28:23;5.03;;;1.70;;
57752;SDS011;43583;53.132;6.574;2022-07-01T03:30:49;4.45;;;1.15;;
57752;SDS011;43583;53.132;6.574;2022-07-01T03:33:14;2.95;;;1.50;;
57752;SDS011;43583;53.132;6.574;2022-07-01T03:35:40;2.97;;;1.67;;
57752;SDS011;43583;53.132;6.574;2022-07-01T03:38:11;3.60;;;1.65;;
57752;SDS011;43583;53.132;6.574;2022-07-01T03:40:37;2.65;;;1.30;;
57752;SDS011;43583;53.132;6.574;2022-07-01T03:43:03;3.47;;;1.13;;
57752;SDS011;43583;53.132;6.574;2022-07-01T03:45:30;4.93;;;1.45;;
57752;SDS011;43583;53.132;6.574;2022-07-01T03:47:56;1.60;;;1.50;;
57752;SDS011;43583;53.132;6.574;2022-07-01T03:50:22;7.93;;;2.30;;
57752;SDS011;43583;53.132;6.574;2022-07-01T03:52:49;3.40;;;1.52;;
57752;SDS011;43583;53.132;6.574;2022-07-01T03:55:36;3.97;;;2.28;;
57752;SDS011;43583;53.132;6.574;2022-07-01T03:58:03;4.95;;;2.30;;
57752;SDS011;43583;53.132;6.574;2022-07-01T04:00:28;4.50;;;2.47;;
57752;SDS011;43583;53.132;6.574;2022-07-01T04:02:59;2.38;;;1.80;;
57752;SDS011;43583;53.132;6.574;2022-07-01T04:05:24;4.63;;;2.28;;
57752;SDS011;43583;53.132;6.574;2022-07-01T04:07:50;5.00;;;1.88;;
57752;SDS011;43583;53.132;6.574;2022-07-01T04:10:16;4.28;;;2.58;;
57752;SDS011;43583;53.132;6.574;2022-07-01T04:12:42;5.70;;;2.38;;
57752;SDS011;43583;53.132;6.574;2022-07-01T04:15:08;6.30;;;2.72;;
57752;SDS011;43583;53.132;6.574;2022-07-01T04:17:34;2.42;;;2.15;;
57752;SDS011;43583;53.132;6.574;2022-07-01T04:19:59;5.22;;;2.80;;
57752;SDS011;43583;53.132;6.574;2022-07-01T04:22:25;4.75;;;2.35;;
57752;SDS011;43583;53.132;6.574;2022-07-01T04:25:01;3.25;;;2.80;;
57752;SDS011;43583;53.132;6.574;2022-07-01T04:27:29;3.78;;;3.05;;
57752;SDS011;43583;53.132;6.574;2022-07-01T04:29:55;3.80;;;3.05;;
57752;SDS011;43583;53.132;6.574;2022-07-01T04:32:22;4.05;;;3.38;;
57752;SDS011;43583;53.132;6.574;2022-07-01T04:34:48;5.88;;;4.40;;
57752;SDS011;43583;53.132;6.574;2022-07-01T04:37:14;5.45;;;3.92;;
57752;SDS011;43583;53.132;6.574;2022-07-01T04:39:39;6.88;;;4.70;;
57752;SDS011;43583;53.132;6.574;2022-07-01T04:42:05;5.43;;;4.32;;
57752;SDS011;43583;53.132;6.574;2022-07-01T04:44:32;8.65;;;6.07;;
57752;SDS011;43583;53.132;6.574;2022-07-01T04:46:59;6.85;;;5.25;;
57752;SDS011;43583;53.132;6.574;2022-07-01T04:49:26;5.93;;;5.28;;
57752;SDS011;43583;53.132;6.574;2022-07-01T04:51:52;8.30;;;6.28;;
57752;SDS011;43583;53.132;6.574;2022-07-01T04:54:18;9.02;;;6.80;;
57752;SDS011;43583;53.132;6.574;2022-07-01T04:56:44;12.10;;;8.00;;
57752;SDS011;43583;53.132;6.574;2022-07-01T04:59:10;11.73;;;8.85;;
57752;SDS011;43583;53.132;6.574;2022-07-01T05:01:36;16.02;;;9.98;;
57752;SDS011;43583;53.132;6.574;2022-07-01T05:04:02;13.30;;;9.70;;
57752;SDS011;43583;53.132;6.574;2022-07-01T05:06:28;16.92;;;11.27;;
57752;SDS011;43583;53.132;6.574;2022-07-01T05:08:54;20.30;;;12.05;;
57752;SDS011;43583;53.132;6.574;2022-07-01T05:11:19;16.50;;;13.10;;
57752;SDS011;43583;53.132;6.574;2022-07-01T05:13:45;20.52;;;14.02;;
57752;SDS011;43583;53.132;6.574;2022-07-01T05:16:11;19.25;;;13.68;;
57752;SDS011;43583;53.132;6.574;2022-07-01T05:18:37;24.85;;;14.52;;
57752;SDS011;43583;53.132;6.574;2022-07-01T05:21:21;19.33;;;14.98;;
57752;SDS011;43583;53.132;6.574;2022-07-01T05:24:06;26.00;;;16.67;;
57752;SDS011;43583;53.132;6.574;2022-07-01T05:26:32;20.50;;;15.02;;
57752;SDS011;43583;53.132;6.574;2022-07-01T05:28:58;24.13;;;16.45;;
57752;SDS011;43583;53.132;6.574;2022-07-01T05:31:24;21.65;;;16.10;;
57752;SDS011;43583;53.132;6.574;2022-07-01T05:33:49;21.00;;;15.77;;
57752;SDS011;43583;53.132;6.574;2022-07-01T05:36:15;23.58;;;16.77;;
57752;SDS011;43583;53.132;6.574;2022-07-01T05:38:41;21.77;;;17.40;;
57752;SDS011;43583;53.132;6.574;2022-07-01T05:41:07;24.55;;;18.35;;
57752;SDS011;43583;53.132;6.574;2022-07-01T05:43:33;26.52;;;18.40;;
57752;SDS011;43583;53.132;6.574;2022-07-01T05:45:59;23.65;;;18.85;;
57752;SDS011;43583;53.132;6.574;2022-07-01T05:48:25;25.75;;;19.95;;
57752;SDS011;43583;53.132;6.574;2022-07-01T05:50:51;24.38;;;17.95;;
57752;SDS011;43583;53.132;6.574;2022-07-01T05:53:17;26.15;;;18.33;;
57752;SDS011;43583;53.132;6.574;2022-07-01T05:55:43;25.13;;;20.05;;
57752;SDS011;43583;53.132;6.574;2022-07-01T05:58:12;23.50;;;18.88;;
57752;SDS011;43583;53.132;6.574;2022-07-01T06:00:38;23.67;;;20.10;;
57752;SDS011;43583;53.132;6.574;2022-07-01T06:03:06;24.42;;;18.98;;
57752;SDS011;43583;53.132;6.574;2022-07-01T06:05:32;25.27;;;19.25;;
57752;SDS011;43583;53.132;6.574;2022-07-01T06:07:58;25.63;;;21.40;;
57752;SDS011;43583;53.132;6.574;2022-07-01T06:10:24;23.40;;;20.38;;
57752;SDS011;43583;53.132;6.574;2022-07-01T06:12:50;25.35;;;20.70;;
57752;SDS011;43583;53.132;6.574;2022-07-01T06:15:15;25.85;;;21.40;;
57752;SDS011;43583;53.132;6.574;2022-07-01T06:17:41;24.58;;;19.92;;
57752;SDS011;43583;53.132;6.574;2022-07-01T06:20:07;20.88;;;18.70;;
57752;SDS011;43583;53.132;6.574;2022-07-01T06:22:33;23.02;;;20.00;;
57752;SDS011;43583;53.132;6.574;2022-07-01T06:24:59;24.67;;;21.17;;
57752;SDS011;43583;53.132;6.574;2022-07-01T06:27:25;22.67;;;19.77;;
57752;SDS011;43583;53.132;6.574;2022-07-01T06:29:52;25.90;;;18.88;;
57752;SDS011;43583;53.132;6.574;2022-07-01T06:32:18;21.98;;;19.20;;
57752;SDS011;43583;53.132;6.574;2022-07-01T06:34:43;23.75;;;19.48;;
57752;SDS011;43583;53.132;6.574;2022-07-01T06:37:09;21.00;;;18.67;;
57752;SDS011;43583;53.132;6.574;2022-07-01T06:39:35;23.50;;;19.95;;
57752;SDS011;43583;53.132;6.574;2022-07-01T06:42:01;22.38;;;19.70;;
57752;SDS011;43583;53.132;6.574;2022-07-01T06:44:26;21.58;;;19.13;;
57752;SDS011;43583;53.132;6.574;2022-07-01T06:46:52;22.52;;;18.10;;
57752;SDS011;43583;53.132;6.574;2022-07-01T06:49:18;20.98;;;17.90;;
57752;SDS011;43583;53.132;6.574;2022-07-01T06:51:43;18.70;;;16.60;;
57752;SDS011;43583;53.132;6.574;2022-07-01T06:54:09;21.20;;;18.05;;
57752;SDS011;43583;53.132;6.574;2022-07-01T06:56:35;21.70;;;17.75;;
57752;SDS011;43583;53.132;6.574;2022-07-01T06:59:01;21.92;;;19.23;;
57752;SDS011;43583;53.132;6.574;2022-07-01T07:01:27;24.08;;;18.83;;
57752;SDS011;43583;53.132;6.574;2022-07-01T07:03:53;25.40;;;19.67;;
57752;SDS011;43583;53.132;6.574;2022-07-01T07:06:19;20.90;;;18.73;;
57752;SDS011;43583;53.132;6.574;2022-07-01T07:08:46;21.33;;;19.20;;
57752;SDS011;43583;53.132;6.574;2022-07-01T07:11:11;21.73;;;19.63;;
57752;SDS011;43583;53.132;6.574;2022-07-01T07:13:39;21.38;;;18.75;;
57752;SDS011;43583;53.132;6.574;2022-07-01T07:16:06;23.83;;;20.60;;
57752;SDS011;43583;53.132;6.574;2022-07-01T07:18:31;22.13;;;20.00;;
57752;SDS011;43583;53.132;6.574;2022-07-01T07:20:57;21.67;;;19.50;;
57752;SDS011;43583;53.132;6.574;2022-07-01T07:23:23;22.98;;;20.77;;
57752;SDS011;43583;53.132;6.574;2022-07-01T07:25:49;23.20;;;20.92;;
57752;SDS011;43583;53.132;6.574;2022-07-01T07:28:14;20.13;;;18.02;;
57752;SDS011;43583;53.132;6.574;2022-07-01T07:30:40;22.17;;;19.88;;
57752;SDS011;43583;53.132;6.574;2022-07-01T07:33:06;22.15;;;19.85;;
57752;SDS011;43583;53.132;6.574;2022-07-01T07:35:31;19.77;;;17.95;;
57752;SDS011;43583;53.132;6.574;2022-07-01T07:37:57;20.23;;;18.17;;
57752;SDS011;43583;53.132;6.574;2022-07-01T07:40:22;21.40;;;18.50;;
57752;SDS011;43583;53.132;6.574;2022-07-01T07:42:49;20.83;;;18.73;;
57752;SDS011;43583;53.132;6.574;2022-07-01T07:45:15;21.52;;;19.40;;
57752;SDS011;43583;53.132;6.574;2022-07-01T07:47:42;23.63;;;19.58;;
57752;SDS011;43583;53.132;6.574;2022-07-01T07:50:09;24.88;;;19.25;;
57752;SDS011;43583;53.132;6.574;2022-07-01T07:52:35;20.95;;;18.75;;
57752;SDS011;43583;53.132;6.574;2022-07-01T07:55:01;21.67;;;19.40;;
57752;SDS011;43583;53.132;6.574;2022-07-01T07:57:27;19.35;;;17.55;;
57752;SDS011;43583;53.132;6.574;2022-07-01T07:59:53;20.10;;;18.08;;
57752;SDS011;43583;53.132;6.574;2022-07-01T08:02:19;20.85;;;18.95;;
57752;SDS011;43583;53.132;6.574;2022-07-01T08:04:45;19.83;;;17.92;;
57752;SDS011;43583;53.132;6.574;2022-07-01T08:07:10;19.35;;;16.88;;
57752;SDS011;43583;53.132;6.574;2022-07-01T08:09:36;18.67;;;16.88;;
57752;SDS011;43583;53.132;6.574;2022-07-01T08:12:02;16.80;;;15.07;;
57752;SDS011;43583;53.132;6.574;2022-07-01T08:14:28;16.45;;;14.73;;
57752;SDS011;43583;53.132;6.574;2022-07-01T08:16:53;16.73;;;14.52;;
57752;SDS011;43583;53.132;6.574;2022-07-01T08:19:19;14.90;;;13.45;;
57752;SDS011;43583;53.132;6.574;2022-07-01T08:21:45;14.75;;;13.35;;
57752;SDS011;43583;53.132;6.574;2022-07-01T08:24:11;13.23;;;12.13;;
57752;SDS011;43583;53.132;6.574;2022-07-01T08:26:36;13.15;;;11.98;;
57752;SDS011;43583;53.132;6.574;2022-07-01T08:29:02;11.40;;;10.30;;
57752;SDS011;43583;53.132;6.574;2022-07-01T08:31:28;13.15;;;11.80;;
57752;SDS011;43583;53.132;6.574;2022-07-01T08:33:54;11.48;;;10.23;;
57752;SDS011;43583;53.132;6.574;2022-07-01T08:36:20;16.05;;;10.85;;
57752;SDS011;43583;53.132;6.574;2022-07-01T08:38:46;10.73;;;9.93;;
57752;SDS011;43583;53.132;6.574;2022-07-01T08:41:14;9.48;;;8.57;;
57752;SDS011;43583;53.132;6.574;2022-07-01T08:43:39;8.80;;;7.95;;
57752;SDS011;43583;53.132;6.574;2022-07-01T08:46:06;11.57;;;8.73;;
57752;SDS011;43583;53.132;6.574;2022-07-01T08:48:33;9.40;;;7.40;;
57752;SDS011;43583;53.132;6.574;2022-07-01T08:50:59;9.68;;;7.57;;
57752;SDS011;43583;53.132;6.574;2022-07-01T08:53:29;7.28;;;6.57;;
57752;SDS011;43583;53.132;6.574;2022-07-01T08:55:55;7.45;;;6.07;;
57752;SDS011;43583;53.132;6.574;2022-07-01T08:58:40;9.43;;;7.57;;
57752;SDS011;43583;53.132;6.574;2022-07-01T09:01:12;6.25;;;4.97;;
57752;SDS011;43583;53.132;6.574;2022-07-01T09:04:12;6.13;;;4.60;;
57752;SDS011;43583;53.132;6.574;2022-07-01T09:06:42;9.52;;;5.93;;
57752;SDS011;43583;53.132;6.574;2022-07-01T09:11:38;6.10;;;3.83;;
57752;SDS011;43583;53.132;6.574;2022-07-01T09:14:25;8.65;;;3.83;;
57752;SDS011;43583;53.132;6.574;2022-07-01T09:16:55;4.90;;;3.40;;
57752;SDS011;43583;53.132;6.574;2022-07-01T09:19:26;8.20;;;3.13;;
57752;SDS011;43583;53.132;6.574;2022-07-01T09:21:57;7.50;;;3.38;;
57752;SDS011;43583;53.132;6.574;2022-07-01T09:27:02;5.10;;;3.40;;
57752;SDS011;43583;53.132;6.574;2022-07-01T09:29:34;5.55;;;3.60;;
57752;SDS011;43583;53.132;6.574;2022-07-01T09:32:03;6.60;;;3.92;;
57752;SDS011;43583;53.132;6.574;2022-07-01T09:34:35;4.43;;;2.65;;
57752;SDS011;43583;53.132;6.574;2022-07-01T09:37:05;4.45;;;2.50;;
57752;SDS011;43583;53.132;6.574;2022-07-01T09:39:41;4.60;;;3.47;;
57752;SDS011;43583;53.132;6.574;2022-07-01T09:42:08;2.40;;;1.95;;
57752;SDS011;43583;53.132;6.574;2022-07-01T09:44:34;6.25;;;2.05;;
57752;SDS011;43583;53.132;6.574;2022-07-01T09:46:59;6.68;;;2.60;;
57752;SDS011;43583;53.132;6.574;2022-07-01T09:49:27;7.05;;;2.50;;
57752;SDS011;43583;53.132;6.574;2022-07-01T09:51:52;3.50;;;1.83;;
57752;SDS011;43583;53.132;6.574;2022-07-01T09:54:18;2.25;;;1.10;;
57752;SDS011;43583;53.132;6.574;2022-07-01T09:56:44;2.55;;;1.27;;
57752;SDS011;43583;53.132;6.574;2022-07-01T09:59:10;2.97;;;1.30;;
57752;SDS011;43583;53.132;6.574;2022-07-01T10:01:37;3.53;;;1.08;;
57752;SDS011;43583;53.132;6.574;2022-07-01T10:04:04;3.38;;;1.38;;
57752;SDS011;43583;53.132;6.574;2022-07-01T10:12:32;3.08;;;1.20;;
57752;SDS011;43583;53.132;6.574;2022-07-01T10:15:08;4.20;;;1.98;;
57752;SDS011;43583;53.132;6.574;2022-07-01T10:17:36;2.03;;;1.00;;
57752;SDS011;43583;53.132;6.574;2022-07-01T10:20:10;4.70;;;1.73;;
57752;SDS011;43583;53.132;6.574;2022-07-01T10:22:41;3.95;;;1.23;;
57752;SDS011;43583;53.132;6.574;2022-07-01T10:28:13;2.03;;;0.80;;
57752;SDS011;43583;53.132;6.574;2022-07-01T10:36:07;3.55;;;1.05;;
57752;SDS011;43583;53.132;6.574;2022-07-01T10:38:34;2.63;;;1.10;;
57752;SDS011;43583;53.132;6.574;2022-07-01T10:41:24;1.65;;;0.70;;
57752;SDS011;43583;53.132;6.574;2022-07-01T10:43:50;3.78;;;1.33;;
57752;SDS011;43583;53.132;6.574;2022-07-01T10:46:52;2.83;;;1.55;;
57752;SDS011;43583;53.132;6.574;2022-07-01T10:49:15;3.25;;;1.55;;
57752;SDS011;43583;53.132;6.574;2022-07-01T10:59:43;3.05;;;1.38;;
57752;SDS011;43583;53.132;6.574;2022-07-01T11:02:22;2.78;;;1.20;;
57752;SDS011;43583;53.132;6.574;2022-07-01T11:04:51;2.92;;;1.27;;
57752;SDS011;43583;53.132;6.574;2022-07-01T11:07:18;3.85;;;1.02;;
57752;SDS011;43583;53.132;6.574;2022-07-01T11:09:44;3.53;;;0.93;;
57752;SDS011;43583;53.132;6.574;2022-07-01T11:12:10;3.35;;;0.73;;
57752;SDS011;43583;53.132;6.574;2022-07-01T11:14:39;3.00;;;0.70;;
57752;SDS011;43583;53.132;6.574;2022-07-01T11:17:06;1.80;;;0.28;;
57752;SDS011;43583;53.132;6.574;2022-07-01T11:19:32;0.82;;;0.10;;
57752;SDS011;43583;53.132;6.574;2022-07-01T11:21:58;2.05;;;0.10;;
57752;SDS011;43583;53.132;6.574;2022-07-01T11:24:24;0.75;;;0.20;;
57752;SDS011;43583;53.132;6.574;2022-07-01T11:26:50;0.95;;;0.10;;
57752;SDS011;43583;53.132;6.574;2022-07-01T11:29:25;1.65;;;0.30;;
57752;SDS011;43583;53.132;6.574;2022-07-01T11:31:52;4.40;;;0.10;;
57752;SDS011;43583;53.132;6.574;2022-07-01T11:34:18;1.70;;;0.10;;
57752;SDS011;43583;53.132;6.574;2022-07-01T11:36:44;3.17;;;0.10;;
57752;SDS011;43583;53.132;6.574;2022-07-01T11:39:29;4.05;;;0.13;;
57752;SDS011;43583;53.132;6.574;2022-07-01T11:42:02;1.23;;;0.10;;
57752;SDS011;43583;53.132;6.574;2022-07-01T11:46:58;3.17;;;0.38;;
57752;SDS011;43583;53.132;6.574;2022-07-01T11:49:24;2.90;;;0.28;;
57752;SDS011;43583;53.132;6.574;2022-07-01T11:51:56;2.38;;;0.30;;
57752;SDS011;43583;53.132;6.574;2022-07-01T11:54:27;1.05;;;0.10;;
57752;SDS011;43583;53.132;6.574;2022-07-01T11:56:52;1.60;;;0.13;;
57752;SDS011;43583;53.132;6.574;2022-07-01T11:59:18;1.00;;;0.10;;
57752;SDS011;43583;53.132;6.574;2022-07-01T12:01:50;1.08;;;0.13;;
57752;SDS011;43583;53.132;6.574;2022-07-01T12:04:19;2.50;;;0.25;;
57752;SDS011;43583;53.132;6.574;2022-07-01T12:06:46;6.13;;;0.82;;
57752;SDS011;43583;53.132;6.574;2022-07-01T12:09:13;4.57;;;0.68;;
57752;SDS011;43583;53.132;6.574;2022-07-01T12:11:39;2.85;;;0.20;;
57752;SDS011;43583;53.132;6.574;2022-07-01T12:14:18;1.73;;;0.20;;
57752;SDS011;43583;53.132;6.574;2022-07-01T12:16:50;1.50;;;0.40;;
57752;SDS011;43583;53.132;6.574;2022-07-01T12:19:26;2.88;;;0.30;;
57752;SDS011;43583;53.132;6.574;2022-07-01T12:22:05;2.33;;;0.20;;
57752;SDS011;43583;53.132;6.574;2022-07-01T12:24:33;1.92;;;0.10;;
57752;SDS011;43583;53.132;6.574;2022-07-01T12:29:27;2.20;;;0.57;;
57752;SDS011;43583;53.132;6.574;2022-07-01T12:32:00;1.60;;;0.25;;
57752;SDS011;43583;53.132;6.574;2022-07-01T12:34:38;1.80;;;0.05;;
57752;SDS011;43583;53.132;6.574;2022-07-01T12:37:03;1.88;;;0.10;;
57752;SDS011;43583;53.132;6.574;2022-07-01T12:39:41;1.45;;;0.10;;
57752;SDS011;43583;53.132;6.574;2022-07-01T12:42:35;1.85;;;0.10;;
57752;SDS011;43583;53.132;6.574;2022-07-01T12:45:04;2.53;;;0.10;;
57752;SDS011;43583;53.132;6.574;2022-07-01T12:47:33;3.53;;;0.10;;
57752;SDS011;43583;53.132;6.574;2022-07-01T12:50:59;1.35;;;0.10;;
57752;SDS011;43583;53.132;6.574;2022-07-01T12:53:03;2.35;;;0.05;;
57752;SDS011;43583;53.132;6.574;2022-07-01T12:55:40;0.90;;;0.00;;
57752;SDS011;43583;53.132;6.574;2022-07-01T12:58:08;2.22;;;0.00;;
57752;SDS011;43583;53.132;6.574;2022-07-01T13:00:34;5.25;;;0.63;;
57752;SDS011;43583;53.132;6.574;2022-07-01T13:03:02;1.40;;;0.30;;
57752;SDS011;43583;53.132;6.574;2022-07-01T13:05:29;2.55;;;0.30;;
57752;SDS011;43583;53.132;6.574;2022-07-01T13:07:57;2.35;;;0.20;;
57752;SDS011;43583;53.132;6.574;2022-07-01T13:10:22;2.20;;;0.08;;
57752;SDS011;43583;53.132;6.574;2022-07-01T13:12:49;1.20;;;0.10;;
57752;SDS011;43583;53.132;6.574;2022-07-01T13:15:16;2.55;;;0.20;;
57752;SDS011;43583;53.132;6.574;2022-07-01T13:17:42;0.93;;;0.03;;
57752;SDS011;43583;53.132;6.574;2022-07-01T13:20:09;3.03;;;0.05;;
57752;SDS011;43583;53.132;6.574;2022-07-01T13:22:35;0.90;;;0.00;;
57752;SDS011;43583;53.132;6.574;2022-07-01T13:25:01;1.52;;;0.08;;
57752;SDS011;43583;53.132;6.574;2022-07-01T13:27:27;1.30;;;0.25;;
57752;SDS011;43583;53.132;6.574;2022-07-01T13:29:52;1.88;;;0.40;;
57752;SDS011;43583;53.132;6.574;2022-07-01T13:32:18;1.30;;;0.30;;
57752;SDS011;43583;53.132;6.574;2022-07-01T13:34:43;2.03;;;0.20;;
57752;SDS011;43583;53.132;6.574;2022-07-01T13:37:09;3.17;;;0.10;;
57752;SDS011;43583;53.132;6.574;2022-07-01T13:39:35;1.55;;;0.08;;
57752;SDS011;43583;53.132;6.574;2022-07-01T13:42:00;1.83;;;0.10;;
57752;SDS011;43583;53.132;6.574;2022-07-01T13:44:26;2.03;;;0.10;;
57752;SDS011;43583;53.132;6.574;2022-07-01T13:46:51;1.33;;;0.00;;
57752;SDS011;43583;53.132;6.574;2022-07-01T13:49:17;1.20;;;0.10;;
57752;SDS011;43583;53.132;6.574;2022-07-01T13:51:43;2.67;;;0.13;;
57752;SDS011;43583;53.132;6.574;2022-07-01T13:54:09;2.25;;;0.10;;
57752;SDS011;43583;53.132;6.574;2022-07-01T13:56:35;1.73;;;0.32;;
57752;SDS011;43583;53.132;6.574;2022-07-01T13:59:00;1.20;;;0.10;;
57752;SDS011;43583;53.132;6.574;2022-07-01T14:01:26;1.90;;;0.00;;
57752;SDS011;43583;53.132;6.574;2022-07-01T14:03:53;1.35;;;0.00;;
57752;SDS011;43583;53.132;6.574;2022-07-01T14:06:18;1.65;;;0.10;;
57752;SDS011;43583;53.132;6.574;2022-07-01T14:08:44;1.67;;;0.05;;
57752;SDS011;43583;53.132;6.574;2022-07-01T14:11:11;1.77;;;0.10;;
57752;SDS011;43583;53.132;6.574;2022-07-01T14:13:37;1.15;;;0.00;;
57752;SDS011;43583;53.132;6.574;2022-07-01T14:16:04;1.63;;;0.10;;
57752;SDS011;43583;53.132;6.574;2022-07-01T14:18:31;3.08;;;0.38;;
57752;SDS011;43583;53.132;6.574;2022-07-01T14:21:01;2.28;;;0.10;;
57752;SDS011;43583;53.132;6.574;2022-07-01T14:23:27;1.15;;;0.10;;
57752;SDS011;43583;53.132;6.574;2022-07-01T14:25:53;0.60;;;0.00;;
57752;SDS011;43583;53.132;6.574;2022-07-01T14:28:19;1.65;;;0.10;;
57752;SDS011;43583;53.132;6.574;2022-07-01T14:30:45;1.10;;;0.10;;
57752;SDS011;43583;53.132;6.574;2022-07-01T14:33:11;1.27;;;0.10;;
57752;SDS011;43583;53.132;6.574;2022-07-01T14:35:37;2.95;;;0.20;;
57752;SDS011;43583;53.132;6.574;2022-07-01T14:38:03;1.08;;;0.10;;
57752;SDS011;43583;53.132;6.574;2022-07-01T14:40:30;2.22;;;0.43;;
57752;SDS011;43583;53.132;6.574;2022-07-01T14:42:57;1.80;;;0.20;;
57752;SDS011;43583;53.132;6.574;2022-07-01T14:45:22;1.70;;;0.10;;
57752;SDS011;43583;53.132;6.574;2022-07-01T14:47:48;1.88;;;0.17;;
57752;SDS011;43583;53.132;6.574;2022-07-01T14:50:13;2.15;;;0.10;;
57752;SDS011;43583;53.132;6.574;2022-07-01T14:52:39;2.65;;;0.30;;
57752;SDS011;43583;53.132;6.574;2022-07-01T14:55:05;3.95;;;0.55;;
57752;SDS011;43583;53.132;6.574;2022-07-01T14:57:31;2.47;;;0.22;;
57752;SDS011;43583;53.132;6.574;2022-07-01T14:59:56;2.83;;;0.30;;
57752;SDS011;43583;53.132;6.574;2022-07-01T15:02:23;1.10;;;0.10;;
57752;SDS011;43583;53.132;6.574;2022-07-01T15:04:49;2.15;;;0.10;;
57752;SDS011;43583;53.132;6.574;2022-07-01T15:07:15;2.47;;;0.10;;
57752;SDS011;43583;53.132;6.574;2022-07-01T15:09:41;3.30;;;0.10;;
57752;SDS011;43583;53.132;6.574;2022-07-01T15:12:07;1.98;;;0.10;;
57752;SDS011;43583;53.132;6.574;2022-07-01T15:14:33;0.75;;;0.20;;